createdAt,value
2018-04-28T00:01:46.458Z,98915.34
2018-04-28T00:04:20.105Z,98912.39
2018-04-28T00:06:53.924Z,98915.55
2018-04-28T00:09:27.544Z,98920.25
2018-04-28T00:12:01.428Z,98924.09
2018-04-28T00:14:36.623Z,98919.23
2018-04-28T00:17:10.472Z,98919.35
2018-04-28T00:19:44.290Z,98931.30
2018-04-28T00:22:18.469Z,98924.72
2018-04-28T00:24:52.326Z,98924.93
2018-04-28T00:27:26.304Z,98914.67
2018-04-28T00:30:00.928Z,98925.31
2018-04-28T00:32:35.892Z,98921.59
2018-04-28T00:35:09.520Z,98917.51
2018-04-28T00:37:46.672Z,98918.81
2018-04-28T00:40:21.035Z,98918.89
2018-04-28T00:42:54.747Z,98914.00
2018-04-28T00:45:30.055Z,98931.16
2018-04-28T00:48:05.833Z,98932.38
2018-04-28T00:50:39.295Z,98933.94
2018-04-28T00:53:13.251Z,98928.41
2018-04-28T00:55:48.019Z,98937.65
2018-04-28T00:58:21.669Z,98938.44
2018-04-28T01:00:55.171Z,98938.14
2018-04-28T01:03:29.152Z,98935.85
2018-04-28T01:06:02.628Z,98941.19
2018-04-28T01:08:36.312Z,98946.97
2018-04-28T01:11:09.914Z,98936.25
2018-04-28T01:13:43.447Z,98944.50
2018-04-28T01:16:16.996Z,98948.63
2018-04-28T01:18:52.267Z,98949.40
2018-04-28T01:21:26.076Z,98951.23
2018-04-28T01:23:59.647Z,98954.23
2018-04-28T01:26:35.565Z,98953.89
2018-04-28T01:29:09.387Z,98955.57
2018-04-28T01:31:44.597Z,98961.22
2018-04-28T01:34:18.611Z,98958.06
2018-04-28T01:39:20.917Z,98959.25
2018-04-28T01:41:55.491Z,98963.37
2018-04-28T01:44:30.468Z,98958.85
2018-04-28T01:47:05.475Z,98958.39
2018-04-28T01:49:47.279Z,98967.29
2018-04-28T01:52:21.453Z,98969.18
2018-04-28T01:55:04.999Z,98973.02
2018-04-28T01:57:39.488Z,98971.91
2018-04-28T02:00:16.081Z,98968.28
2018-04-28T02:02:51.439Z,98971.63
2018-04-28T02:05:25.919Z,98973.70
2018-04-28T02:08:00.080Z,98980.13
2018-04-28T02:10:36.302Z,98983.89
2018-04-28T02:13:10.349Z,98987.28
2018-04-28T02:15:49.153Z,98988.97
2018-04-28T02:18:25.434Z,98990.13
2018-04-28T02:21:00.455Z,98993.67
2018-04-28T02:23:35.354Z,98990.75
2018-04-28T02:26:12.720Z,98989.14
2018-04-28T02:28:46.649Z,98989.41
2018-04-28T02:31:23.117Z,98976.51
2018-04-28T02:33:58.284Z,98991.25
2018-04-28T02:36:32.845Z,98996.02
2018-04-28T02:39:06.882Z,99007.31
2018-04-28T02:41:44.371Z,99000.01
2018-04-28T02:44:22.723Z,99004.58
2018-04-28T02:46:56.974Z,99004.09
2018-04-28T02:49:31.637Z,99007.77
2018-04-28T02:52:05.967Z,99008.69
2018-04-28T02:54:42.775Z,99010.30
2018-04-28T02:57:20.098Z,99016.28
2018-04-28T03:02:34.805Z,99020.41
2018-04-28T03:05:08.920Z,99024.78
2018-04-28T03:07:42.300Z,99030.95
2018-04-28T03:10:15.718Z,99034.91
2018-04-28T03:12:48.923Z,99036.28
2018-04-28T03:15:21.893Z,99044.89
2018-04-28T03:17:55.095Z,99048.03
2018-04-28T03:20:27.908Z,99054.06
2018-04-28T03:23:01.012Z,99061.90
2018-04-28T03:25:34.162Z,99057.41
2018-04-28T03:28:07.128Z,99058.95
2018-04-28T03:30:40.319Z,99057.27
2018-04-28T03:33:13.975Z,99057.70
2018-04-28T03:35:47.225Z,99064.67
2018-04-28T03:38:20.085Z,99058.77
2018-04-28T03:40:53.014Z,99068.84
2018-04-28T03:43:26.494Z,99070.16
2018-04-28T03:46:01.159Z,99075.38
2018-04-28T03:48:34.017Z,99079.06
2018-04-28T03:51:09.939Z,99084.09
2018-04-28T03:53:45.664Z,99093.13
2018-04-28T03:56:18.503Z,99093.64
2018-04-28T03:59:02.290Z,99093.55
2018-04-28T04:03:48.970Z,99099.67
2018-04-28T04:06:22.151Z,99104.81
2018-04-28T04:08:55.065Z,99106.52
2018-04-28T04:11:32.544Z,99107.55
2018-04-28T04:14:05.390Z,99111.41
2018-04-28T04:16:38.578Z,99104.80
2018-04-28T04:19:12.110Z,99112.91
2018-04-28T04:21:45.183Z,99123.03
2018-04-28T04:24:18.066Z,99113.41
2018-04-28T04:26:51.776Z,99116.41
2018-04-28T04:29:24.732Z,99115.39
2018-04-28T04:31:57.979Z,99114.42
2018-04-28T04:34:38.094Z,99122.96
2018-04-28T04:37:11.130Z,99130.84
2018-04-28T04:39:44.504Z,99139.67
2018-04-28T04:42:18.114Z,99143.95
2018-04-28T04:44:51.089Z,99145.08
2018-04-28T04:47:24.835Z,99146.48
2018-04-28T04:49:57.717Z,99148.81
2018-04-28T04:52:31.644Z,99156.55
2018-04-28T04:55:05.069Z,99158.50
2018-04-28T04:57:38.307Z,99164.38
2018-04-28T05:00:11.598Z,99169.16
2018-04-28T05:02:47.052Z,99163.69
2018-04-28T05:05:20.554Z,99174.77
2018-04-28T05:07:56.543Z,99174.48
2018-04-28T05:10:31.291Z,99186.54
2018-04-28T05:13:04.274Z,99188.93
2018-04-28T05:15:37.346Z,99193.20
2018-04-28T05:18:10.979Z,99196.50
2018-04-28T05:20:43.879Z,99194.75
2018-04-28T05:23:17.413Z,99196.64
2018-04-28T05:25:51.409Z,99195.33
2018-04-28T05:28:28.827Z,99210.34
2018-04-28T05:31:03.871Z,99209.64
2018-04-28T05:33:37.265Z,99206.41
2018-04-28T05:36:11.919Z,99212.62
2018-04-28T05:38:45.822Z,99203.95
2018-04-28T05:41:19.689Z,99218.84
2018-04-28T05:43:57.662Z,99222.83
2018-04-28T05:46:31.134Z,99223.21
2018-04-28T05:49:05.437Z,99226.39
2018-04-28T05:51:40.806Z,99230.01
2018-04-28T05:54:14.144Z,99226.34
2018-04-28T05:56:56.835Z,99229.58
2018-04-28T05:59:38.971Z,99231.23
2018-04-28T06:02:14.634Z,99226.98
2018-04-28T06:04:47.969Z,99230.77
2018-04-28T06:07:21.408Z,99235.32
2018-04-28T06:09:57.824Z,99229.17
2018-04-28T06:12:31.647Z,99234.36
2018-04-28T06:15:05.124Z,99232.58
2018-04-28T06:17:47.679Z,99235.84
2018-04-28T06:20:26.741Z,99239.93
2018-04-28T06:23:00.032Z,99240.02
2018-04-28T06:25:34.020Z,99242.52
2018-04-28T06:28:10.567Z,99238.91
2018-04-28T06:30:43.544Z,99242.19
2018-04-28T06:33:16.827Z,99244.88
2018-04-28T06:35:50.305Z,99246.13
2018-04-28T06:38:24.933Z,99243.21
2018-04-28T06:41:01.780Z,99239.17
2018-04-28T06:43:35.155Z,99241.25
2018-04-28T06:46:08.658Z,99246.23
2018-04-28T06:48:42.905Z,99245.66
2018-04-28T06:51:18.661Z,99254.47
2018-04-28T06:53:53.199Z,99251.25
2018-04-28T06:56:26.489Z,99255.29
2018-04-28T07:01:29.103Z,99257.59
2018-04-28T07:04:02.049Z,99257.27
2018-04-28T07:06:36.657Z,99258.15
2018-04-28T07:09:09.801Z,99258.13
2018-04-28T07:11:46.011Z,99265.64
2018-04-28T07:14:20.891Z,99262.84
2018-04-28T07:16:54.009Z,99261.46
2018-04-28T07:19:27.084Z,99263.18
2018-04-28T07:22:00.290Z,99265.70
2018-04-28T07:24:33.938Z,99267.92
2018-04-28T07:27:06.823Z,99264.12
2018-04-28T07:29:40.387Z,99259.83
2018-04-28T07:32:14.005Z,99261.16
2018-04-28T07:34:48.601Z,99269.44
2018-04-28T07:37:21.541Z,99263.11
2018-04-28T07:39:55.857Z,99270.89
2018-04-28T07:42:29.398Z,99261.89
2018-04-28T07:45:02.740Z,99262.59
2018-04-28T07:47:38.155Z,99263.75
2018-04-28T07:50:11.246Z,99267.55
2018-04-28T07:52:44.137Z,99269.35
2018-04-28T07:55:18.159Z,99266.83
2018-04-28T07:57:53.337Z,99266.23
2018-04-28T08:00:27.058Z,99273.03
2018-04-28T08:03:01.174Z,99261.09
2018-04-28T08:05:35.425Z,99265.56
2018-04-28T08:08:09.067Z,99259.60
2018-04-28T08:10:44.229Z,99261.10
2018-04-28T08:13:19.209Z,99265.58
2018-04-28T08:15:53.716Z,99260.75
2018-04-28T08:18:27.141Z,99260.70
2018-04-28T08:21:02.107Z,99255.08
2018-04-28T08:23:35.623Z,99258.53
2018-04-28T08:26:17.866Z,99254.66
2018-04-28T08:28:51.713Z,99262.20
2018-04-28T08:31:27.541Z,99268.95
2018-04-28T08:34:02.871Z,99255.20
2018-04-28T08:36:36.807Z,99257.73
2018-04-28T08:39:10.704Z,99261.22
2018-04-28T08:41:47.617Z,99266.12
2018-04-28T08:44:22.151Z,99258.53
2018-04-28T08:46:56.241Z,99255.66
2018-04-28T08:49:29.497Z,99262.83
2018-04-28T08:52:04.144Z,99263.42
2018-04-28T08:54:38.484Z,99260.63
2018-04-28T08:57:12.263Z,99262.20
2018-04-28T09:00:58.568Z,99257.20
2018-04-28T09:03:37.323Z,99261.73
2018-04-28T09:06:10.915Z,99257.99
2018-04-28T09:08:48.470Z,99254.24
2018-04-28T09:11:22.103Z,99250.51
2018-04-28T09:13:56.117Z,99248.50
2018-04-28T09:16:29.539Z,99249.17
2018-04-28T09:19:02.944Z,99244.43
2018-04-28T09:21:38.285Z,99244.27
2018-04-28T09:24:12.826Z,99251.06
2018-04-28T09:26:49.126Z,99242.50
2018-04-28T09:29:23.138Z,99250.10
2018-04-28T09:32:03.494Z,99249.00
2018-04-28T09:34:39.090Z,99246.52
2018-04-28T09:37:13.140Z,99238.02
2018-04-28T09:39:49.082Z,99245.96
2018-04-28T09:42:31.284Z,99242.92
2018-04-28T09:45:05.272Z,99232.97
2018-04-28T09:47:44.224Z,99245.38
2018-04-28T09:50:19.139Z,99234.16
2018-04-28T09:52:53.918Z,99238.45
2018-04-28T09:55:27.724Z,99231.87
2018-04-28T09:58:06.456Z,99227.42
2018-04-28T10:00:44.076Z,99231.08
2018-04-28T10:03:22.093Z,99230.16
2018-04-28T10:05:56.012Z,99235.74
2018-04-28T10:08:31.058Z,99228.48
2018-04-28T10:11:04.539Z,99237.33
2018-04-28T10:13:39.293Z,99229.14
2018-04-28T10:16:14.561Z,99225.19
2018-04-28T10:18:52.388Z,99221.27
2018-04-28T10:21:27.002Z,99223.02
2018-04-28T10:24:00.635Z,99227.20
2018-04-28T10:26:34.536Z,99213.80
2018-04-28T10:29:10.861Z,99214.44
2018-04-28T10:31:44.811Z,99198.02
2018-04-28T10:34:18.462Z,99207.86
2018-04-28T10:36:51.659Z,99206.73
2018-04-28T10:39:25.558Z,99204.70
2018-04-28T10:41:59.111Z,99199.31
2018-04-28T10:44:34.971Z,99198.61
2018-04-28T10:47:08.744Z,99196.78
2018-04-28T10:49:42.169Z,99186.41
2018-04-28T10:54:50.010Z,99185.25
2018-04-28T10:57:23.567Z,99177.97
2018-04-28T10:59:57.262Z,99176.64
2018-04-28T11:02:30.467Z,99176.26
2018-04-28T11:05:04.643Z,99178.23
2018-04-28T11:07:40.411Z,99176.69
2018-04-28T11:10:15.016Z,99173.36
2018-04-28T11:12:49.888Z,99175.41
2018-04-28T11:15:32.863Z,99168.33
2018-04-28T11:18:06.034Z,99188.01
2018-04-28T11:20:41.710Z,99174.54
2018-04-28T11:23:16.092Z,99165.45
2018-04-28T11:25:49.416Z,99166.00
2018-04-28T11:28:24.292Z,99153.99
2018-04-28T11:30:58.083Z,99162.98
2018-04-28T11:33:32.829Z,99161.22
2018-04-28T11:36:07.644Z,99160.88
2018-04-28T11:38:42.491Z,99142.97
2018-04-28T11:41:20.216Z,99146.54
2018-04-28T11:43:53.553Z,99158.70
2018-04-28T11:46:27.849Z,99142.20
2018-04-28T11:49:01.232Z,99143.58
2018-04-28T11:51:34.971Z,99132.91
2018-04-28T11:54:10.916Z,99137.69
2018-04-28T11:56:46.887Z,99139.40
2018-04-28T11:59:21.613Z,99133.11
2018-04-28T12:01:55.512Z,99131.03
2018-04-28T12:04:28.957Z,99128.56
2018-04-28T12:07:02.473Z,99134.48
2018-04-28T12:09:36.359Z,99123.28
2018-04-28T12:12:09.842Z,99126.70
2018-04-28T12:14:45.582Z,99123.41
2018-04-28T12:17:21.252Z,99120.22
2018-04-28T12:19:58.481Z,99120.89
2018-04-28T12:22:32.825Z,99109.06
2018-04-28T12:25:08.498Z,99119.97
2018-04-28T12:27:42.126Z,99118.28
2018-04-28T12:30:24.500Z,99126.35
2018-04-28T12:33:04.069Z,99117.55
2018-04-28T12:35:39.646Z,99124.23
2018-04-28T12:38:15.123Z,99119.77
2018-04-28T12:40:52.672Z,99117.78
2018-04-28T12:43:26.257Z,99115.46
2018-04-28T12:45:59.593Z,99113.45
2018-04-28T12:48:34.402Z,99110.86
2018-04-28T12:51:08.640Z,99110.48
2018-04-28T12:53:41.769Z,99099.27
2018-04-28T12:56:17.470Z,99102.86
2018-04-28T12:58:51.073Z,99108.70
2018-04-28T13:01:24.724Z,99107.45
2018-04-28T13:03:58.212Z,99105.94
2018-04-28T13:06:34.043Z,99103.55
2018-04-28T13:09:07.384Z,99103.23
2018-04-28T13:11:40.573Z,99107.33
2018-04-28T13:14:14.214Z,99109.09
2018-04-28T13:16:48.640Z,99103.44
2018-04-28T13:19:27.432Z,99100.61
2018-04-28T13:22:10.919Z,99112.72
2018-04-28T13:25:04.520Z,99107.39
2018-04-28T13:27:39.798Z,99102.60
2018-04-28T13:30:14.132Z,99107.87
2018-04-28T13:33:03.848Z,99100.18
2018-04-28T13:35:39.638Z,99087.27
2018-04-28T13:38:14.288Z,99094.91
2018-04-28T13:40:48.068Z,99098.47
2018-04-28T13:43:22.691Z,99092.31
2018-04-28T13:45:57.950Z,99086.55
2018-04-28T13:48:32.039Z,99088.89
2018-04-28T13:51:06.689Z,99091.39
2018-04-28T13:53:40.648Z,99093.39
2018-04-28T13:56:21.182Z,99097.01
2018-04-28T13:59:07.271Z,99083.64
2018-04-28T14:01:47.421Z,99084.76
2018-04-28T14:04:24.081Z,99087.37
2018-04-28T14:06:57.793Z,99080.59
2018-04-28T14:09:30.940Z,99085.13
2018-04-28T14:12:04.536Z,99082.92
2018-04-28T14:14:37.778Z,99078.73
2018-04-28T14:17:11.023Z,99089.23
2018-04-28T14:19:45.633Z,99087.84
2018-04-28T14:22:26.225Z,99090.12
2018-04-28T14:25:06.787Z,99095.88
2018-04-28T14:27:48.343Z,99097.33
2018-04-28T14:30:22.588Z,99096.70
2018-04-28T14:32:56.370Z,99102.77
2018-04-28T14:35:29.459Z,99097.97
2018-04-28T14:38:02.903Z,99102.28
2018-04-28T14:40:37.462Z,99101.05
2018-04-28T14:43:11.140Z,99105.75
2018-04-28T14:45:45.238Z,99104.33
2018-04-28T14:48:18.621Z,99103.91
2018-04-28T14:50:52.042Z,99099.16
2018-04-28T14:53:25.909Z,99092.97
2018-04-28T14:58:36.372Z,99099.59
2018-04-28T15:01:10.271Z,99097.30
2018-04-28T15:03:45.666Z,99098.08
2018-04-28T15:06:21.597Z,99104.44
2018-04-28T15:08:55.348Z,99106.36
2018-04-28T15:11:29.879Z,99104.77
2018-04-28T15:14:03.206Z,99107.88
2018-04-28T15:16:37.138Z,99106.16
2018-04-28T15:19:16.791Z,99105.37
2018-04-28T15:21:51.282Z,99097.62
2018-04-28T15:24:24.307Z,99097.87
2018-04-28T15:26:57.531Z,99091.00
2018-04-28T15:29:31.211Z,99084.68
2018-04-28T15:32:04.475Z,99077.64
2018-04-28T15:34:43.831Z,99076.66
2018-04-28T15:37:18.137Z,99083.45
2018-04-28T15:39:53.776Z,99093.81
2018-04-28T15:42:27.191Z,99092.73
2018-04-28T15:45:05.968Z,99095.38
2018-04-28T15:47:39.886Z,99097.47
2018-04-28T15:50:18.779Z,99079.22
2018-04-28T15:52:53.185Z,99082.91
2018-04-28T15:55:28.632Z,99089.54
2018-04-28T15:58:03.392Z,99097.61
2018-04-28T16:00:38.690Z,99103.61
2018-04-28T16:03:21.256Z,99097.36
2018-04-28T16:06:01.817Z,99090.79
2018-04-28T16:08:39.522Z,99097.14
2018-04-28T16:11:14.131Z,99084.45
2018-04-28T16:13:48.019Z,99085.48
2018-04-28T16:16:21.324Z,99079.61
2018-04-28T16:18:55.356Z,99083.64
2018-04-28T16:21:28.622Z,99088.07
2018-04-28T16:24:01.946Z,99086.35
2018-04-28T16:26:36.033Z,99090.48
2018-04-28T16:29:09.188Z,99093.70
2018-04-28T16:31:43.573Z,99089.77
2018-04-28T16:34:16.969Z,99089.11
2018-04-28T16:36:51.823Z,99089.03
2018-04-28T16:39:25.043Z,99087.35
2018-04-28T16:42:01.876Z,99086.95
2018-04-28T16:44:35.075Z,99090.92
2018-04-28T16:47:08.927Z,99085.70
2018-04-28T16:49:42.596Z,99088.66
2018-04-28T16:52:15.823Z,99093.94
2018-04-28T16:54:49.166Z,99091.22
2018-04-28T16:57:22.679Z,99089.89
2018-04-28T16:59:55.932Z,99091.23
2018-04-28T17:02:29.192Z,99091.05
2018-04-28T17:05:03.546Z,99087.61
2018-04-28T17:07:37.409Z,99091.28
2018-04-28T17:10:11.089Z,99089.11
2018-04-28T17:12:44.527Z,99087.23
2018-04-28T17:17:55.500Z,99087.72
2018-04-28T17:20:29.010Z,99100.88
2018-04-28T17:23:02.698Z,99103.33
2018-04-28T17:25:37.114Z,99093.68
2018-04-28T17:28:10.303Z,99097.44
2018-04-28T17:30:44.856Z,99093.97
2018-04-28T17:33:24.816Z,99101.27
2018-04-28T17:35:58.473Z,99100.98
2018-04-28T17:38:32.662Z,99102.69
2018-04-28T17:41:06.333Z,99104.77
2018-04-28T17:43:40.039Z,99108.20
2018-04-28T17:46:18.923Z,99104.73
2018-04-28T17:48:52.412Z,99114.73
2018-04-28T17:51:26.557Z,99119.39
2018-04-28T17:54:02.316Z,99114.25
2018-04-28T17:56:36.490Z,99116.64
2018-04-28T17:59:13.248Z,99115.19
2018-04-28T18:01:46.593Z,99120.05
2018-04-28T18:04:20.032Z,99119.22
2018-04-28T18:07:03.749Z,99112.72
2018-04-28T18:09:45.704Z,99115.55
2018-04-28T18:12:19.323Z,99115.95
2018-04-28T18:14:53.075Z,99115.98
2018-04-28T18:17:26.415Z,99124.83
2018-04-28T18:20:01.856Z,99128.64
2018-04-28T18:22:35.866Z,99130.66
2018-04-28T18:25:10.135Z,99133.14
2018-04-28T18:27:44.169Z,99129.22
2018-04-28T18:30:18.804Z,99127.05
2018-04-28T18:32:59.172Z,99127.67
2018-04-28T18:35:33.807Z,99130.61
2018-04-28T18:38:07.664Z,99127.58
2018-04-28T18:40:41.244Z,99129.64
2018-04-28T18:43:18.043Z,99122.50
2018-04-28T18:45:56.554Z,99128.48
2018-04-28T18:48:30.904Z,99138.31
2018-04-28T18:51:07.376Z,99143.70
2018-04-28T18:53:40.706Z,99145.14
2018-04-28T18:56:14.398Z,99147.53
2018-04-28T18:58:47.726Z,99155.63
2018-04-28T19:01:21.331Z,99150.46
2018-04-28T19:03:55.028Z,99151.05
2018-04-28T19:06:29.358Z,99144.64
2018-04-28T19:09:02.774Z,99159.13
2018-04-28T19:11:41.876Z,99161.37
2018-04-28T19:14:21.029Z,99153.40
2018-04-28T19:17:00.364Z,99159.62
2018-04-28T19:19:41.123Z,99157.11
2018-04-28T19:22:19.612Z,99158.50
2018-04-28T19:24:54.370Z,99153.17
2018-04-28T19:27:27.957Z,99157.27
2018-04-28T19:30:02.118Z,99154.75
2018-04-28T19:32:35.307Z,99158.01
2018-04-28T19:35:13.911Z,99162.05
2018-04-28T19:37:47.935Z,99157.98
2018-04-28T19:40:23.859Z,99165.63
2018-04-28T19:42:57.276Z,99170.95
2018-04-28T19:45:31.740Z,99170.52
2018-04-28T19:48:05.096Z,99173.50
2018-04-28T19:50:38.874Z,99168.16
2018-04-28T19:53:12.071Z,99172.73
2018-04-28T19:55:45.823Z,99168.70
2018-04-28T19:58:19.235Z,99173.09
2018-04-28T20:00:52.740Z,99171.48
2018-04-28T20:03:26.585Z,99170.55
2018-04-28T20:06:00.856Z,99169.09
2018-04-28T20:08:34.686Z,99173.20
2018-04-28T20:11:07.896Z,99167.59
2018-04-28T20:13:41.503Z,99170.59
2018-04-28T20:16:14.940Z,99166.33
2018-04-28T20:18:50.634Z,99171.09
2018-04-28T20:23:59.017Z,99171.14
2018-04-28T20:26:32.282Z,99170.14
2018-04-28T20:29:05.925Z,99168.40
2018-04-28T20:31:39.448Z,99175.12
2018-04-28T20:34:12.612Z,99167.36
2018-04-28T20:36:46.500Z,99162.98
2018-04-28T20:39:22.655Z,99164.19
2018-04-28T20:41:57.179Z,99160.44
2018-04-28T20:44:31.840Z,99154.56
2018-04-28T20:47:05.125Z,99158.02
2018-04-28T20:49:38.743Z,99161.06
2018-04-28T20:52:13.173Z,99163.06
2018-04-28T20:54:47.124Z,99165.23
2018-04-28T20:57:22.267Z,99164.69
2018-04-28T20:59:55.807Z,99164.81
2018-04-28T21:02:29.558Z,99167.19
2018-04-28T21:05:02.932Z,99172.89
2018-04-28T21:07:36.312Z,99178.23
2018-04-28T21:10:09.507Z,99174.33
2018-04-28T21:12:43.154Z,99177.23
2018-04-28T21:15:17.729Z,99177.02
2018-04-28T21:17:51.190Z,99178.13
2018-04-28T21:20:24.597Z,99180.63
2018-04-28T21:22:58.568Z,99182.52
2018-04-28T21:25:32.257Z,99185.15
2018-04-28T21:28:05.596Z,99186.52
2018-04-28T21:30:39.897Z,99187.25
2018-04-28T21:33:13.353Z,99181.12
2018-04-28T21:35:46.790Z,99179.09
2018-04-28T21:38:20.413Z,99179.81
2018-04-28T21:40:57.484Z,99182.42
2018-04-28T21:43:30.507Z,99180.39
2018-04-28T21:46:03.461Z,99184.64
2018-04-28T21:48:37.285Z,99178.45
2018-04-28T21:51:10.335Z,99178.19
2018-04-28T21:53:43.448Z,99179.78
2018-04-28T21:56:16.959Z,99182.77
2018-04-28T21:58:51.828Z,99177.86
2018-04-28T22:01:25.955Z,99169.07
2018-04-28T22:03:59.458Z,99159.34
2018-04-28T22:06:32.679Z,99161.25
2018-04-28T22:09:07.576Z,99160.80
2018-04-28T22:11:41.022Z,99157.18
2018-04-28T22:14:14.586Z,99166.22
2018-04-28T22:16:53.238Z,99171.20
2018-04-28T22:19:26.607Z,99171.14
2018-04-28T22:21:59.882Z,99171.03
2018-04-28T22:24:33.215Z,99173.17
2018-04-28T22:27:15.608Z,99172.55
2018-04-28T22:29:48.994Z,99174.86
2018-04-28T22:32:22.250Z,99176.93
2018-04-28T22:34:55.281Z,99186.98
2018-04-28T22:37:28.635Z,99185.22
2018-04-28T22:40:01.878Z,99188.92
2018-04-28T22:42:35.092Z,99186.92
2018-04-28T22:45:08.068Z,99182.16
2018-04-28T22:47:41.302Z,99173.62
2018-04-28T22:50:14.340Z,99178.81
2018-04-28T22:52:47.651Z,99183.42
2018-04-28T22:55:20.737Z,99185.81
2018-04-28T22:57:53.911Z,99189.89
2018-04-28T23:00:27.502Z,99178.90
2018-04-28T23:03:00.364Z,99180.13
2018-04-28T23:05:34.346Z,99167.37
2018-04-28T23:08:08.101Z,99176.92
2018-04-28T23:10:41.095Z,99179.13
2018-04-28T23:13:14.386Z,99182.52
2018-04-28T23:15:47.640Z,99177.27
2018-04-28T23:18:21.679Z,99174.11
2018-04-28T23:20:55.135Z,99173.79
2018-04-28T23:23:28.379Z,99173.45
2018-04-28T23:26:01.458Z,99174.17
2018-04-28T23:28:35.140Z,99172.05
2018-04-28T23:31:08.760Z,99173.76
2018-04-28T23:33:42.262Z,99174.08
2018-04-28T23:36:15.423Z,99177.36
2018-04-28T23:38:49.053Z,99179.10
2018-04-28T23:41:22.432Z,99168.82
2018-04-28T23:43:55.493Z,99173.27
2018-04-28T23:46:28.623Z,99154.65
2018-04-28T23:49:02.030Z,99163.69
2018-04-28T23:51:35.441Z,99164.78
2018-04-28T23:54:09.151Z,99163.37
2018-04-28T23:56:42.430Z,99166.62
2018-04-28T23:59:15.673Z,99159.17
